Time;durP1;ratioP1;P1;durP2;ratioP2;P2;SDS_P1;SDS_P2;PMS_P1;PMS_P2;Temp;Humidity;BMP_temperature;BMP_pressure;BME280_temperature;BME280_humidity;BME280_pressure;Samples;Min_cycle;Max_cycle;Signal;HPM_P1;HPM_P2
2022/01/11 00:01:21;;;;;;;51.00;29.87;;;;;;;;;;5066521;28;21034;-79
2022/01/11 00:03:47;;;;;;;50.37;28.47;;;;;;;;;;5071385;28;22063;-78
2022/01/11 00:06:27;;;;;;;47.53;26.70;;;;;;;;;;5070372;28;20517;-78
2022/01/11 00:08:59;;;;;;;51.50;28.27;;;;;;;;;;5067104;28;21449;-78
2022/01/11 00:11:25;;;;;;;46.50;25.00;;;;;;;;;;5069969;28;20425;-78
2022/01/11 00:13:52;;;;;;;49.03;27.27;;;;;;;;;;5072025;28;20557;-78
2022/01/11 00:16:18;;;;;;;48.30;26.47;;;;;;;;;;5063337;28;20420;-78
2022/01/11 00:18:44;;;;;;;49.97;27.47;;;;;;;;;;5067379;28;20431;-78
2022/01/11 00:21:11;;;;;;;44.73;25.23;;;;;;;;;;5065812;28;20421;-78
2022/01/11 00:26:03;;;;;;;40.27;23.03;;;;;;;;;;5068657;28;20456;-78
2022/01/11 00:28:30;;;;;;;40.93;22.90;;;;;;;;;;5063625;28;20514;-78
2022/01/11 00:30:57;;;;;;;41.37;24.03;;;;;;;;;;5067564;28;20465;-78
2022/01/11 00:33:36;;;;;;;42.03;23.60;;;;;;;;;;5064147;28;20515;-78
2022/01/11 00:36:03;;;;;;;41.40;22.73;;;;;;;;;;5068337;28;20430;-78
2022/01/11 00:38:36;;;;;;;45.03;24.53;;;;;;;;;;5061413;28;20439;-78
2022/01/11 00:41:05;;;;;;;37.50;22.67;;;;;;;;;;5069379;28;20429;-78
2022/01/11 00:43:31;;;;;;;39.50;22.37;;;;;;;;;;5065763;28;20482;-78
2022/01/11 00:45:58;;;;;;;36.93;21.63;;;;;;;;;;5061039;28;20448;-79
2022/01/11 00:48:24;;;;;;;39.30;21.33;;;;;;;;;;5068159;28;21130;-78
2022/01/11 00:50:51;;;;;;;39.70;21.53;;;;;;;;;;5073458;28;20425;-78
2022/01/11 00:53:18;;;;;;;37.63;21.20;;;;;;;;;;5068240;28;20498;-78
2022/01/11 00:55:45;;;;;;;35.70;19.40;;;;;;;;;;5068411;28;20425;-78
2022/01/11 00:58:11;;;;;;;38.13;21.00;;;;;;;;;;5069137;28;20428;-78
2022/01/11 01:00:38;;;;;;;36.00;19.73;;;;;;;;;;5067661;28;21305;-78
2022/01/11 01:03:05;;;;;;;37.37;20.50;;;;;;;;;;5065819;28;20428;-78
2022/01/11 01:05:31;;;;;;;32.07;19.03;;;;;;;;;;5064250;28;20450;-78
2022/01/11 01:07:57;;;;;;;34.40;19.37;;;;;;;;;;5067790;28;20531;-79
2022/01/11 01:10:26;;;;;;;38.40;21.43;;;;;;;;;;5070827;28;20424;-78
2022/01/11 01:12:57;;;;;;;36.83;19.53;;;;;;;;;;5066014;28;20489;-78
2022/01/11 01:15:24;;;;;;;32.27;18.43;;;;;;;;;;5067039;28;21181;-78
2022/01/11 01:17:51;;;;;;;37.63;20.33;;;;;;;;;;5069579;28;20425;-78
2022/01/11 01:20:17;;;;;;;34.87;19.37;;;;;;;;;;5068216;28;21161;-78
2022/01/11 01:22:43;;;;;;;29.73;17.37;;;;;;;;;;5064873;28;20524;-78
2022/01/11 01:25:10;;;;;;;31.23;18.70;;;;;;;;;;5063475;28;20558;-79
2022/01/11 01:27:36;;;;;;;35.90;19.63;;;;;;;;;;5064565;28;21067;-78
2022/01/11 01:30:04;;;;;;;31.40;18.20;;;;;;;;;;5066201;28;20436;-79
2022/01/11 01:32:30;;;;;;;29.80;18.27;;;;;;;;;;5064172;28;20425;-78
2022/01/11 01:35:01;;;;;;;30.33;17.33;;;;;;;;;;5065284;28;20556;-79
2022/01/11 01:37:27;;;;;;;27.77;16.23;;;;;;;;;;5068144;28;20547;-78
2022/01/11 01:39:53;;;;;;;25.33;15.60;;;;;;;;;;5065622;28;20429;-78
2022/01/11 01:42:25;;;;;;;29.20;17.57;;;;;;;;;;5065962;28;20445;-78
2022/01/11 01:44:51;;;;;;;30.03;16.33;;;;;;;;;;5065803;28;20524;-78
2022/01/11 01:47:18;;;;;;;26.33;16.33;;;;;;;;;;5062848;28;21256;-78
2022/01/11 01:49:44;;;;;;;24.07;15.93;;;;;;;;;;5062756;28;20432;-78
2022/01/11 01:52:10;;;;;;;25.03;16.47;;;;;;;;;;5063912;28;20871;-78
2022/01/11 01:54:37;;;;;;;27.03;16.73;;;;;;;;;;5067980;28;20424;-78
2022/01/11 01:57:03;;;;;;;26.83;14.80;;;;;;;;;;5067603;28;20448;-78
2022/01/11 01:59:29;;;;;;;22.97;14.20;;;;;;;;;;5067353;28;20912;-78
2022/01/11 02:01:56;;;;;;;23.53;13.27;;;;;;;;;;5064926;28;20678;-79
2022/01/11 02:04:22;;;;;;;18.67;12.27;;;;;;;;;;5065500;28;20456;-79
2022/01/11 02:06:48;;;;;;;21.63;12.57;;;;;;;;;;5063172;28;20418;-79
2022/01/11 02:09:15;;;;;;;19.67;12.50;;;;;;;;;;5062410;28;21107;-79
2022/01/11 02:11:41;;;;;;;15.27;11.93;;;;;;;;;;5063957;28;20447;-79
2022/01/11 02:14:08;;;;;;;21.63;13.47;;;;;;;;;;5067667;28;20421;-79
2022/01/11 02:16:34;;;;;;;20.37;12.67;;;;;;;;;;5067316;28;21314;-79
2022/01/11 02:19:00;;;;;;;19.80;12.33;;;;;;;;;;5063860;28;21564;-79
2022/01/11 02:21:27;;;;;;;19.37;13.97;;;;;;;;;;5070246;28;20409;-79
2022/01/11 02:23:53;;;;;;;18.53;11.93;;;;;;;;;;5066027;28;21265;-78
2022/01/11 02:26:20;;;;;;;22.90;12.97;;;;;;;;;;5068856;28;20569;-79
2022/01/11 02:28:46;;;;;;;18.23;11.67;;;;;;;;;;5067825;28;20417;-78
2022/01/11 02:31:12;;;;;;;19.43;11.80;;;;;;;;;;5061515;28;20417;-79
2022/01/11 02:33:48;;;;;;;15.77;10.40;;;;;;;;;;5061733;28;20445;-79
2022/01/11 02:36:18;;;;;;;14.97;10.07;;;;;;;;;;5067004;28;20478;-78
2022/01/11 02:38:44;;;;;;;18.67;12.40;;;;;;;;;;5068419;28;20533;-78
2022/01/11 02:41:10;;;;;;;14.53;10.10;;;;;;;;;;5061115;28;20458;-79
2022/01/11 02:43:41;;;;;;;17.93;11.53;;;;;;;;;;5065277;28;20420;-78
2022/01/11 02:46:07;;;;;;;19.10;12.03;;;;;;;;;;5065269;28;20455;-78
2022/01/11 02:48:33;;;;;;;16.50;9.97;;;;;;;;;;5065513;28;20500;-79
2022/01/11 02:50:59;;;;;;;20.53;12.13;;;;;;;;;;5066303;28;20459;-79
2022/01/11 02:53:25;;;;;;;17.40;11.13;;;;;;;;;;5065416;28;20520;-78
2022/01/11 02:55:51;;;;;;;18.27;10.90;;;;;;;;;;5064629;28;20417;-79
2022/01/11 02:58:17;;;;;;;20.23;12.10;;;;;;;;;;5067031;28;21189;-79
2022/01/11 03:00:44;;;;;;;16.03;11.07;;;;;;;;;;5065360;28;21041;-79
2022/01/11 03:03:12;;;;;;;16.50;11.57;;;;;;;;;;5060051;28;21351;-79
2022/01/11 03:05:44;;;;;;;15.77;11.40;;;;;;;;;;5064019;28;20456;-79
2022/01/11 03:08:12;;;;;;;17.70;11.37;;;;;;;;;;5068018;28;21075;-79
2022/01/11 03:10:39;;;;;;;18.63;12.13;;;;;;;;;;5063413;28;20502;-79
2022/01/11 03:13:06;;;;;;;16.53;10.43;;;;;;;;;;5067099;28;21087;-79
2022/01/11 03:15:32;;;;;;;14.60;10.23;;;;;;;;;;5063116;28;20428;-79
2022/01/11 03:17:58;;;;;;;16.23;10.00;;;;;;;;;;5065540;28;20432;-79
2022/01/11 03:20:24;;;;;;;16.93;10.50;;;;;;;;;;5064177;28;20426;-79
2022/01/11 03:22:51;;;;;;;15.30;9.93;;;;;;;;;;5064346;28;20433;-79
2022/01/11 03:25:17;;;;;;;16.50;11.40;;;;;;;;;;5060918;28;20448;-79
2022/01/11 03:27:43;;;;;;;14.50;9.63;;;;;;;;;;5062096;28;20432;-79
2022/01/11 03:30:10;;;;;;;17.77;10.27;;;;;;;;;;5057835;28;20984;-79
2022/01/11 03:32:37;;;;;;;15.80;10.40;;;;;;;;;;5063124;28;20545;-79
2022/01/11 03:35:04;;;;;;;16.23;11.93;;;;;;;;;;5064311;28;21414;-79
2022/01/11 03:37:30;;;;;;;15.67;11.20;;;;;;;;;;5060238;28;20476;-79
2022/01/11 03:39:56;;;;;;;17.37;11.07;;;;;;;;;;5060601;28;20452;-79
2022/01/11 03:42:22;;;;;;;16.77;12.07;;;;;;;;;;5060744;28;20432;-79
2022/01/11 03:44:50;;;;;;;19.87;13.40;;;;;;;;;;5061737;28;20452;-79
2022/01/11 03:47:16;;;;;;;17.70;10.83;;;;;;;;;;5065341;28;20679;-79
2022/01/11 03:49:42;;;;;;;17.80;11.03;;;;;;;;;;5065077;28;20428;-79
2022/01/11 03:52:09;;;;;;;17.07;13.10;;;;;;;;;;5061270;28;20474;-79
2022/01/11 03:57:19;;;;;;;23.90;12.50;;;;;;;;;;5062258;28;20492;-79
2022/01/11 03:59:46;;;;;;;19.80;12.67;;;;;;;;;;5063123;28;20468;-79
2022/01/11 04:02:12;;;;;;;22.97;14.53;;;;;;;;;;5062849;28;20424;-79
2022/01/11 04:04:38;;;;;;;25.00;15.57;;;;;;;;;;5065786;28;20448;-79
2022/01/11 04:07:04;;;;;;;23.10;14.93;;;;;;;;;;5062073;28;20425;-79
2022/01/11 04:09:30;;;;;;;23.10;14.97;;;;;;;;;;5062739;28;20468;-79
2022/01/11 04:11:57;;;;;;;23.67;16.07;;;;;;;;;;5067140;28;20579;-79
2022/01/11 04:14:25;;;;;;;24.27;16.10;;;;;;;;;;5068581;28;20964;-79
2022/01/11 04:16:52;;;;;;;21.10;14.00;;;;;;;;;;5065510;28;20428;-79
2022/01/11 04:19:18;;;;;;;19.10;14.10;;;;;;;;;;5065577;28;20418;-79
2022/01/11 04:21:44;;;;;;;22.63;13.27;;;;;;;;;;5067696;28;21292;-79
2022/01/11 04:24:12;;;;;;;21.57;14.47;;;;;;;;;;5065700;28;21112;-79
2022/01/11 04:26:39;;;;;;;25.60;14.00;;;;;;;;;;5068596;28;20448;-79
2022/01/11 04:29:05;;;;;;;23.53;14.00;;;;;;;;;;5064812;28;21269;-79
2022/01/11 04:31:31;;;;;;;19.63;12.13;;;;;;;;;;5065491;28;20452;-79
2022/01/11 04:33:57;;;;;;;23.63;14.70;;;;;;;;;;5066350;28;20439;-79
2022/01/11 04:36:23;;;;;;;21.60;12.43;;;;;;;;;;5065530;28;20424;-79
2022/01/11 04:38:50;;;;;;;24.90;14.73;;;;;;;;;;5067731;28;20494;-79
2022/01/11 04:41:16;;;;;;;22.40;13.03;;;;;;;;;;5067229;28;20416;-79
2022/01/11 04:43:42;;;;;;;18.57;12.03;;;;;;;;;;5066264;28;20471;-79
2022/01/11 04:46:09;;;;;;;18.03;11.40;;;;;;;;;;5065669;28;20448;-79
2022/01/11 04:48:35;;;;;;;17.60;11.93;;;;;;;;;;5062035;28;21015;-79
2022/01/11 04:51:02;;;;;;;18.97;10.93;;;;;;;;;;5067507;28;20443;-79
2022/01/11 04:53:28;;;;;;;20.17;11.80;;;;;;;;;;5068458;28;20423;-79
2022/01/11 04:55:55;;;;;;;16.33;10.60;;;;;;;;;;5065611;28;20436;-80
2022/01/11 04:58:21;;;;;;;19.00;11.83;;;;;;;;;;5065953;28;20516;-79
2022/01/11 05:00:48;;;;;;;21.10;11.90;;;;;;;;;;5066847;28;20428;-79
2022/01/11 05:03:14;;;;;;;20.10;11.00;;;;;;;;;;5065921;28;20421;-80
2022/01/11 05:05:40;;;;;;;20.13;12.87;;;;;;;;;;5066359;28;20454;-79
2022/01/11 05:08:06;;;;;;;19.97;11.00;;;;;;;;;;5068926;28;20450;-79
2022/01/11 05:10:33;;;;;;;20.57;11.97;;;;;;;;;;5062668;28;20440;-80
2022/01/11 05:12:59;;;;;;;20.67;12.40;;;;;;;;;;5067271;28;20419;-80
2022/01/11 05:15:25;;;;;;;16.87;11.23;;;;;;;;;;5063789;28;20424;-80
2022/01/11 05:17:52;;;;;;;21.20;13.80;;;;;;;;;;5065288;28;20424;-80
2022/01/11 05:20:18;;;;;;;23.10;14.00;;;;;;;;;;5064439;28;20429;-79
2022/01/11 05:22:45;;;;;;;18.70;12.63;;;;;;;;;;5068428;28;21230;-79
2022/01/11 05:25:13;;;;;;;20.53;13.67;;;;;;;;;;5067475;28;20448;-80
2022/01/11 05:27:39;;;;;;;23.10;13.93;;;;;;;;;;5065856;28;20531;-79
2022/01/11 05:30:06;;;;;;;20.67;13.60;;;;;;;;;;5063484;28;21015;-79
2022/01/11 05:32:35;;;;;;;19.40;13.50;;;;;;;;;;5065320;28;21061;-79
2022/01/11 05:35:01;;;;;;;24.73;13.70;;;;;;;;;;5067942;28;20508;-79
2022/01/11 05:37:27;;;;;;;23.67;13.00;;;;;;;;;;5063937;28;20355;-79
2022/01/11 05:39:53;;;;;;;27.02;13.75;;;;;;;;;;5067255;28;20436;-80
2022/01/11 05:42:20;;;;;;;22.53;13.00;;;;;;;;;;5070269;28;20199;-79
2022/01/11 05:44:46;;;;;;;20.73;12.40;;;;;;;;;;5060731;28;20523;-79
2022/01/11 05:47:12;;;;;;;17.87;12.00;;;;;;;;;;5062853;28;20429;-79
2022/01/11 05:49:38;;;;;;;22.85;14.30;;;;;;;;;;5063709;28;20420;-79
2022/01/11 05:52:04;;;;;;;21.27;12.40;;;;;;;;;;5064618;28;20175;-79
2022/01/11 05:54:31;;;;;;;22.88;13.35;;;;;;;;;;5066428;28;20424;-79
2022/01/11 05:56:57;;;;;;;23.03;12.97;;;;;;;;;;5062054;28;20301;-79
2022/01/11 05:59:23;;;;;;;18.87;12.03;;;;;;;;;;5063078;28;21321;-79
2022/01/11 06:01:49;;;;;;;20.45;12.48;;;;;;;;;;5067543;28;20474;-79
2022/01/11 06:04:15;;;;;;;19.55;12.15;;;;;;;;;;5065635;28;20186;-79
2022/01/11 06:06:41;;;;;;;24.47;14.00;;;;;;;;;;5066781;28;20171;-79
2022/01/11 06:09:07;;;;;;;21.23;12.77;;;;;;;;;;5068581;28;21133;-80
2022/01/11 06:11:33;;;;;;;19.90;13.00;;;;;;;;;;5078600;28;20433;-79
2022/01/11 06:13:59;;;;;;;27.90;13.53;;;;;;;;;;5063939;28;20426;-79
2022/01/11 06:16:25;;;;;;;22.10;13.23;;;;;;;;;;5063727;28;21375;-79
2022/01/11 06:18:52;;;;;;;24.80;14.47;;;;;;;;;;5064891;28;20428;-80
2022/01/11 06:21:18;;;;;;;20.57;14.00;;;;;;;;;;5062495;28;21166;-79
2022/01/11 06:23:47;;;;;;;22.30;14.00;;;;;;;;;;5065252;28;20421;-79
2022/01/11 06:26:14;;;;;;;22.25;13.90;;;;;;;;;;5061782;28;21047;-79
2022/01/11 06:28:41;;;;;;;29.05;14.60;;;;;;;;;;5066269;28;20171;-79
2022/01/11 06:31:07;;;;;;;24.50;14.60;;;;;;;;;;5066246;28;20194;-79
2022/01/11 06:33:33;;;;;;;27.90;16.38;;;;;;;;;;5068387;28;20507;-79
2022/01/11 06:35:59;;;;;;;29.40;15.03;;;;;;;;;;5064420;28;20252;-79
2022/01/11 06:38:26;;;;;;;26.53;14.90;;;;;;;;;;5059020;28;20433;-79
2022/01/11 06:40:52;;;;;;;35.92;16.23;;;;;;;;;;5060882;28;20468;-79
2022/01/11 06:43:18;;;;;;;33.73;16.33;;;;;;;;;;5063606;28;20191;-79
2022/01/11 06:45:44;;;;;;;28.63;14.98;;;;;;;;;;5063862;28;20444;-79
2022/01/11 06:48:10;;;;;;;34.65;16.65;;;;;;;;;;5064966;28;20191;-79
2022/01/11 06:50:37;;;;;;;31.30;16.77;;;;;;;;;;5067772;28;20181;-79
2022/01/11 06:53:03;;;;;;;27.73;15.07;;;;;;;;;;5063216;28;20463;-79
2022/01/11 06:55:30;;;;;;;27.20;15.43;;;;;;;;;;5062048;28;20472;-79
2022/01/11 06:57:56;;;;;;;32.95;16.80;;;;;;;;;;5060857;28;20450;-79
2022/01/11 07:00:22;;;;;;;31.30;16.17;;;;;;;;;;5062219;28;20192;-79
2022/01/11 07:02:50;;;;;;;30.13;16.40;;;;;;;;;;5061530;28;20175;-79
2022/01/11 07:05:17;;;;;;;31.40;16.07;;;;;;;;;;5063348;28;20452;-79
2022/01/11 07:07:43;;;;;;;33.20;16.80;;;;;;;;;;5062242;28;20421;-79
2022/01/11 07:10:09;;;;;;;33.20;15.47;;;;;;;;;;5063494;28;20738;-79
2022/01/11 07:12:36;;;;;;;27.83;15.60;;;;;;;;;;5066355;28;20417;-79
2022/01/11 07:15:02;;;;;;;28.77;16.40;;;;;;;;;;5061780;28;20426;-79
2022/01/11 07:17:28;;;;;;;31.60;17.30;;;;;;;;;;5062769;28;20431;-79
2022/01/11 07:19:54;;;;;;;32.87;17.67;;;;;;;;;;5062560;28;20540;-79
2022/01/11 07:22:20;;;;;;;30.20;16.20;;;;;;;;;;5066291;28;20421;-79
2022/01/11 07:24:46;;;;;;;27.53;16.07;;;;;;;;;;5063835;28;21016;-79
2022/01/11 07:27:12;;;;;;;30.83;15.27;;;;;;;;;;5060704;28;20922;-79
2022/01/11 07:29:38;;;;;;;27.73;15.40;;;;;;;;;;5062207;28;20496;-79
2022/01/11 07:32:05;;;;;;;29.40;16.03;;;;;;;;;;5063479;28;21512;-79
2022/01/11 07:34:31;;;;;;;25.55;15.23;;;;;;;;;;5059944;28;20463;-79
2022/01/11 07:36:57;;;;;;;27.65;14.95;;;;;;;;;;5056420;28;20171;-79
2022/01/11 07:39:23;;;;;;;27.07;15.20;;;;;;;;;;5063096;28;20172;-79
2022/01/11 07:41:50;;;;;;;27.10;14.93;;;;;;;;;;5063509;28;21268;-79
2022/01/11 07:44:17;;;;;;;30.98;15.30;;;;;;;;;;5062838;28;20425;-79
2022/01/11 07:46:44;;;;;;;26.13;14.43;;;;;;;;;;5062342;28;20172;-79
2022/01/11 07:49:11;;;;;;;29.67;14.90;;;;;;;;;;5064330;28;20483;-79
2022/01/11 07:51:37;;;;;;;26.70;14.50;;;;;;;;;;5064970;28;21280;-78
2022/01/11 07:54:04;;;;;;;24.67;14.93;;;;;;;;;;5063941;28;21193;-79
2022/01/11 07:56:30;;;;;;;28.93;15.37;;;;;;;;;;5065522;28;21249;-79
2022/01/11 07:58:56;;;;;;;29.07;13.93;;;;;;;;;;5066934;28;20436;-79
2022/01/11 08:01:22;;;;;;;29.17;15.33;;;;;;;;;;5069970;28;20432;-78
2022/01/11 08:03:48;;;;;;;25.17;14.03;;;;;;;;;;5065380;28;20413;-79
2022/01/11 08:06:15;;;;;;;27.87;14.93;;;;;;;;;;5070795;28;20567;-78
2022/01/11 08:08:41;;;;;;;22.57;13.40;;;;;;;;;;5065091;28;20509;-78
2022/01/11 08:11:07;;;;;;;26.07;13.83;;;;;;;;;;5064233;28;20444;-79
2022/01/11 08:13:34;;;;;;;25.33;13.53;;;;;;;;;;5065955;28;20426;-78
2022/01/11 08:16:00;;;;;;;27.17;14.37;;;;;;;;;;5066883;28;20702;-78
2022/01/11 08:18:26;;;;;;;27.83;13.53;;;;;;;;;;5069990;28;20432;-79
2022/01/11 08:20:52;;;;;;;21.43;12.60;;;;;;;;;;5065772;28;20433;-78
2022/01/11 08:23:18;;;;;;;23.67;13.23;;;;;;;;;;5065999;28;20417;-78
2022/01/11 08:25:44;;;;;;;25.43;13.37;;;;;;;;;;5069088;28;20445;-79
2022/01/11 08:28:10;;;;;;;25.40;12.90;;;;;;;;;;5066980;28;20422;-79
2022/01/11 08:30:37;;;;;;;23.13;12.40;;;;;;;;;;5070351;28;20420;-80
2022/01/11 08:33:09;;;;;;;26.53;13.20;;;;;;;;;;5070524;28;21325;-79
2022/01/11 08:35:35;;;;;;;20.83;12.33;;;;;;;;;;5068268;28;20417;-80
2022/01/11 08:38:01;;;;;;;21.33;12.53;;;;;;;;;;5065802;28;20456;-80
2022/01/11 08:40:28;;;;;;;22.23;12.50;;;;;;;;;;5076590;28;20420;-80
2022/01/11 08:42:54;;;;;;;21.37;11.50;;;;;;;;;;5070310;28;20468;-80
2022/01/11 08:45:20;;;;;;;21.27;11.83;;;;;;;;;;5061592;28;20457;-80
2022/01/11 08:47:46;;;;;;;22.80;12.17;;;;;;;;;;5068540;28;20419;-80
2022/01/11 08:50:13;;;;;;;22.03;11.97;;;;;;;;;;5067933;28;20469;-80
2022/01/11 08:52:40;;;;;;;17.83;11.40;;;;;;;;;;5068719;28;20417;-80
2022/01/11 08:55:07;;;;;;;19.03;11.47;;;;;;;;;;5070108;28;21278;-80
2022/01/11 08:57:33;;;;;;;18.73;10.77;;;;;;;;;;5067967;28;20428;-80
2022/01/11 09:00:00;;;;;;;25.83;11.10;;;;;;;;;;5068699;28;21313;-80
2022/01/11 09:02:26;;;;;;;22.77;11.37;;;;;;;;;;5070267;28;20601;-80
2022/01/11 09:04:53;;;;;;;20.03;11.57;;;;;;;;;;5067686;28;20518;-80
2022/01/11 09:07:19;;;;;;;22.97;11.47;;;;;;;;;;5067225;28;21535;-80
2022/01/11 09:09:45;;;;;;;20.63;11.33;;;;;;;;;;5071033;28;20424;-79
2022/01/11 09:12:13;;;;;;;24.27;11.63;;;;;;;;;;5068126;28;20428;-80
2022/01/11 09:14:39;;;;;;;19.30;12.00;;;;;;;;;;5066548;28;20510;-80
2022/01/11 09:17:06;;;;;;;20.13;11.30;;;;;;;;;;5070524;28;20424;-80
2022/01/11 09:19:32;;;;;;;30.27;11.50;;;;;;;;;;5069578;28;21353;-79
2022/01/11 09:21:59;;;;;;;23.03;11.90;;;;;;;;;;5069867;28;20424;-80
2022/01/11 09:24:29;;;;;;;18.53;11.27;;;;;;;;;;5069461;28;20420;-80
2022/01/11 09:26:56;;;;;;;20.07;10.77;;;;;;;;;;5069598;28;20507;-79
2022/01/11 09:29:22;;;;;;;22.03;11.20;;;;;;;;;;5069243;28;20409;-80
2022/01/11 09:31:48;;;;;;;26.73;13.63;;;;;;;;;;5068729;28;20421;-80
2022/01/11 09:34:14;;;;;;;23.33;13.57;;;;;;;;;;5066829;28;20433;-80
2022/01/11 09:36:41;;;;;;;24.27;12.97;;;;;;;;;;5063596;28;20467;-80
2022/01/11 09:39:07;;;;;;;28.13;13.30;;;;;;;;;;5067828;28;20443;-80
2022/01/11 09:41:34;;;;;;;29.23;12.83;;;;;;;;;;5067191;28;20432;-80
2022/01/11 09:44:00;;;;;;;19.43;11.80;;;;;;;;;;5065162;28;20437;-80
2022/01/11 09:46:27;;;;;;;24.70;11.00;;;;;;;;;;5066296;28;20449;-80
2022/01/11 09:48:53;;;;;;;29.80;12.93;;;;;;;;;;5068587;28;20421;-80
2022/01/11 09:51:19;;;;;;;21.87;12.53;;;;;;;;;;5068425;28;20423;-80
2022/01/11 09:53:46;;;;;;;28.00;12.73;;;;;;;;;;5067724;28;20506;-80
2022/01/11 09:56:13;;;;;;;23.07;12.97;;;;;;;;;;5064001;28;21050;-80
2022/01/11 09:58:40;;;;;;;22.50;13.50;;;;;;;;;;5063910;28;20424;-79
2022/01/11 10:01:06;;;;;;;23.27;14.73;;;;;;;;;;5065440;28;20410;-80
2022/01/11 10:03:52;;;;;;;25.23;15.60;;;;;;;;;;5066852;28;21453;-80
2022/01/11 10:06:18;;;;;;;30.43;15.80;;;;;;;;;;5064270;28;21154;-80
2022/01/11 10:08:44;;;;;;;26.97;16.17;;;;;;;;;;5063903;28;20416;-80
2022/01/11 10:11:10;;;;;;;28.60;16.93;;;;;;;;;;5067715;28;20432;-80
2022/01/11 10:13:41;;;;;;;25.70;15.93;;;;;;;;;;5067734;28;20397;-80
2022/01/11 10:16:24;;;;;;;28.47;16.77;;;;;;;;;;5063789;28;20422;-80
2022/01/11 10:18:51;;;;;;;27.03;16.07;;;;;;;;;;5067960;28;21245;-80
2022/01/11 10:21:50;;;;;;;27.13;17.20;;;;;;;;;;5066333;28;20421;-80
2022/01/11 10:24:32;;;;;;;30.73;17.90;;;;;;;;;;5021049;28;20424;-80
2022/01/11 10:26:59;;;;;;;25.63;15.23;;;;;;;;;;5070025;28;20536;-79
2022/01/11 10:29:25;;;;;;;26.50;16.37;;;;;;;;;;5062971;28;20420;-79
2022/01/11 10:31:52;;;;;;;27.40;15.83;;;;;;;;;;5066216;28;20498;-79
2022/01/11 10:34:28;;;;;;;26.00;16.53;;;;;;;;;;5065320;28;20428;-79
2022/01/11 10:36:55;;;;;;;26.77;16.27;;;;;;;;;;5062080;28;20481;-79
2022/01/11 10:39:25;;;;;;;27.60;16.27;;;;;;;;;;5068905;28;21032;-79
2022/01/11 10:41:51;;;;;;;27.17;16.80;;;;;;;;;;5064188;28;20841;-79
2022/01/11 10:44:41;;;;;;;26.03;16.40;;;;;;;;;;5067737;28;21124;-79
2022/01/11 10:47:07;;;;;;;29.47;16.93;;;;;;;;;;5056876;28;20439;-79
2022/01/11 10:49:35;;;;;;;23.63;16.10;;;;;;;;;;5068922;28;21281;-78
2022/01/11 10:52:39;;;;;;;29.47;16.33;;;;;;;;;;5064098;28;20420;-80
2022/01/11 10:55:07;;;;;;;25.23;15.37;;;;;;;;;;5009185;28;20505;-80
2022/01/11 10:57:36;;;;;;;24.63;15.63;;;;;;;;;;5020958;28;20431;-79
2022/01/11 11:00:16;;;;;;;28.67;16.30;;;;;;;;;;5044271;28;21389;-80
2022/01/11 11:02:44;;;;;;;27.83;16.00;;;;;;;;;;5063891;28;20427;-80
2022/01/11 11:05:23;;;;;;;23.77;15.53;;;;;;;;;;5066623;28;21169;-80
2022/01/11 11:08:07;;;;;;;25.37;15.67;;;;;;;;;;5063636;28;20420;-80
2022/01/11 11:10:33;;;;;;;27.40;17.10;;;;;;;;;;5064571;28;20444;-80
2022/01/11 11:13:00;;;;;;;31.13;17.57;;;;;;;;;;5064678;28;20420;-81
2022/01/11 11:15:33;;;;;;;25.73;16.60;;;;;;;;;;5063764;28;20426;-80
2022/01/11 11:18:00;;;;;;;26.27;16.37;;;;;;;;;;5063677;28;20441;-80
2022/01/11 11:20:26;;;;;;;24.40;17.27;;;;;;;;;;5064864;28;20428;-80
2022/01/11 11:22:52;;;;;;;27.87;17.83;;;;;;;;;;5070691;28;20452;-80
2022/01/11 11:25:18;;;;;;;29.83;18.00;;;;;;;;;;5064351;28;21161;-82
2022/01/11 11:27:45;;;;;;;29.17;17.10;;;;;;;;;;5072061;28;20428;-82
2022/01/11 11:30:11;;;;;;;28.17;18.23;;;;;;;;;;5066486;28;20425;-81
2022/01/11 11:32:37;;;;;;;27.27;17.37;;;;;;;;;;5068518;28;21075;-82
2022/01/11 11:35:04;;;;;;;29.90;17.10;;;;;;;;;;5071644;28;20432;-82
2022/01/11 11:37:33;;;;;;;29.10;18.23;;;;;;;;;;5072645;28;20425;-82
2022/01/11 11:40:00;;;;;;;28.33;18.33;;;;;;;;;;5068975;28;20474;-83
2022/01/11 11:42:27;;;;;;;27.27;18.47;;;;;;;;;;5071144;28;20424;-83
2022/01/11 11:44:53;;;;;;;32.93;17.67;;;;;;;;;;5064175;28;21386;-82
2022/01/11 11:47:31;;;;;;;28.90;18.17;;;;;;;;;;5067286;28;20421;-82
2022/01/11 11:50:03;;;;;;;30.23;17.20;;;;;;;;;;5072514;28;20420;-83
2022/01/11 11:52:34;;;;;;;26.77;18.10;;;;;;;;;;5066307;28;20477;-82
2022/01/11 11:55:00;;;;;;;30.17;18.90;;;;;;;;;;5068422;28;21560;-82
2022/01/11 11:57:31;;;;;;;28.27;17.73;;;;;;;;;;5062329;28;20528;-82
2022/01/11 12:00:02;;;;;;;30.47;17.30;;;;;;;;;;5069322;28;20436;-82
2022/01/11 12:02:33;;;;;;;30.00;17.70;;;;;;;;;;5054646;28;20424;-82
2022/01/11 12:04:59;;;;;;;27.37;18.57;;;;;;;;;;5070328;28;20497;-82
2022/01/11 12:07:44;;;;;;;26.90;17.63;;;;;;;;;;5071601;28;21054;-82
2022/01/11 12:10:15;;;;;;;29.70;17.43;;;;;;;;;;5066221;28;20420;-82
2022/01/11 12:12:42;;;;;;;27.90;17.83;;;;;;;;;;5075014;28;21170;-82
2022/01/11 12:15:23;;;;;;;30.17;18.47;;;;;;;;;;5070424;28;20533;-82
2022/01/11 12:17:56;;;;;;;29.97;18.90;;;;;;;;;;5070175;28;20426;-82
2022/01/11 12:20:40;;;;;;;30.13;18.23;;;;;;;;;;5070039;28;20420;-82
2022/01/11 12:23:07;;;;;;;28.63;18.63;;;;;;;;;;5068336;28;20450;-81
2022/01/11 12:25:38;;;;;;;28.97;19.07;;;;;;;;;;5069172;28;20479;-81
2022/01/11 12:28:05;;;;;;;34.00;19.90;;;;;;;;;;5066799;28;21310;-82
2022/01/11 12:30:32;;;;;;;32.47;19.60;;;;;;;;;;5066376;28;20419;-81
2022/01/11 12:33:17;;;;;;;30.13;19.37;;;;;;;;;;5068657;28;20414;-80
2022/01/11 12:35:50;;;;;;;32.93;19.87;;;;;;;;;;5072079;28;21038;-81
2022/01/11 12:38:17;;;;;;;27.87;17.93;;;;;;;;;;5068601;28;20416;-81
2022/01/11 12:40:44;;;;;;;24.80;17.50;;;;;;;;;;5068738;28;21214;-81
2022/01/11 12:43:19;;;;;;;29.10;18.50;;;;;;;;;;5070018;28;20425;-81
2022/01/11 12:46:05;;;;;;;31.20;19.83;;;;;;;;;;5066344;28;21432;-81
2022/01/11 12:48:50;;;;;;;24.87;17.80;;;;;;;;;;5068906;28;20444;-82
2022/01/11 12:51:28;;;;;;;29.37;18.40;;;;;;;;;;5069194;28;21293;-82
2022/01/11 12:54:12;;;;;;;27.67;18.13;;;;;;;;;;5071797;28;21234;-81
2022/01/11 12:56:38;;;;;;;27.37;18.47;;;;;;;;;;5068123;28;20282;-81
2022/01/11 12:59:04;;;;;;;25.93;17.63;;;;;;;;;;5067042;28;20183;-81
2022/01/11 13:01:30;;;;;;;26.37;16.87;;;;;;;;;;5066539;28;21006;-82
2022/01/11 13:03:57;;;;;;;28.13;17.73;;;;;;;;;;5065461;28;20187;-81
2022/01/11 13:06:24;;;;;;;25.57;17.40;;;;;;;;;;5067840;28;20190;-81
2022/01/11 13:09:00;;;;;;;29.43;17.43;;;;;;;;;;5064301;28;20848;-81
2022/01/11 13:11:26;;;;;;;24.67;16.47;;;;;;;;;;5066867;28;20233;-81
2022/01/11 13:14:16;;;;;;;25.47;16.53;;;;;;;;;;5068686;28;20482;-81
2022/01/11 13:16:42;;;;;;;25.43;17.37;;;;;;;;;;5067237;28;20278;-81
2022/01/11 13:19:09;;;;;;;27.53;16.60;;;;;;;;;;5066904;28;20178;-80
2022/01/11 13:21:35;;;;;;;26.13;15.93;;;;;;;;;;5065424;28;20179;-81
2022/01/11 13:24:12;;;;;;;22.53;15.57;;;;;;;;;;5066021;28;20952;-80
2022/01/11 13:26:38;;;;;;;32.40;19.77;;;;;;;;;;5066310;28;20194;-80
2022/01/11 13:29:05;;;;;;;25.57;16.80;;;;;;;;;;5073310;28;21043;-81
2022/01/11 13:31:40;;;;;;;32.67;20.27;;;;;;;;;;5067458;28;20174;-81
2022/01/11 13:34:11;;;;;;;41.67;28.00;;;;;;;;;;5067085;28;20444;-81
2022/01/11 13:36:39;;;;;;;23.77;16.70;;;;;;;;;;5066690;28;20417;-81
2022/01/11 13:39:13;;;;;;;24.63;16.13;;;;;;;;;;5065592;28;20997;-82
2022/01/11 13:41:43;;;;;;;23.33;15.20;;;;;;;;;;5070926;28;20173;-81
2022/01/11 13:44:14;;;;;;;24.73;15.30;;;;;;;;;;5068248;28;20429;-82
2022/01/11 13:46:42;;;;;;;25.43;16.50;;;;;;;;;;5065843;28;20537;-82
2022/01/11 13:49:13;;;;;;;25.20;16.73;;;;;;;;;;5066692;28;20534;-82
2022/01/11 13:51:43;;;;;;;30.20;17.67;;;;;;;;;;5063030;28;21364;-82
2022/01/11 13:54:09;;;;;;;29.53;18.33;;;;;;;;;;5067568;28;20412;-82
2022/01/11 13:56:41;;;;;;;25.00;16.13;;;;;;;;;;5066190;28;20174;-82
2022/01/11 13:59:09;;;;;;;25.30;16.70;;;;;;;;;;5069013;28;20186;-82
2022/01/11 14:01:35;;;;;;;28.87;17.40;;;;;;;;;;5066388;28;20504;-82
2022/01/11 14:04:20;;;;;;;27.50;17.50;;;;;;;;;;5072660;28;20456;-82
2022/01/11 14:06:52;;;;;;;26.03;17.47;;;;;;;;;;5071222;28;20449;-82
2022/01/11 14:09:37;;;;;;;31.47;17.80;;;;;;;;;;5065732;28;20420;-82
2022/01/11 14:12:09;;;;;;;28.93;17.60;;;;;;;;;;5065493;28;20437;-81
2022/01/11 14:14:36;;;;;;;25.03;17.63;;;;;;;;;;5069557;28;20417;-81
2022/01/11 14:17:19;;;;;;;29.67;17.43;;;;;;;;;;5068488;28;20444;-80
2022/01/11 14:19:52;;;;;;;28.17;18.27;;;;;;;;;;5067517;28;21471;-81
2022/01/11 14:22:19;;;;;;;28.47;17.97;;;;;;;;;;5068566;28;20432;-80
2022/01/11 14:24:53;;;;;;;32.30;18.23;;;;;;;;;;5071141;28;20417;-81
2022/01/11 14:27:21;;;;;;;34.47;21.57;;;;;;;;;;5067146;28;20416;-80